createdAt,value
2018-08-21T00:00:52.589Z,958.92
2018-08-21T00:01:52.585Z,958.94
2018-08-21T00:02:52.579Z,958.93
2018-08-21T00:03:52.577Z,958.92
2018-08-21T00:04:52.571Z,958.9
2018-08-21T00:05:52.569Z,958.91
2018-08-21T00:06:52.564Z,958.9
2018-08-21T00:07:52.563Z,958.9
2018-08-21T00:08:52.565Z,958.92
2018-08-21T00:09:52.554Z,958.92
2018-08-21T00:10:52.548Z,958.93
2018-08-21T00:11:52.546Z,958.9
2018-08-21T00:12:52.543Z,958.89
2018-08-21T00:13:52.537Z,958.85
2018-08-21T00:14:52.533Z,958.83
2018-08-21T00:15:52.530Z,958.84
2018-08-21T00:16:52.527Z,958.83
2018-08-21T00:17:52.521Z,958.79
2018-08-21T00:18:52.518Z,958.87
2018-08-21T00:19:52.515Z,958.83
2018-08-21T00:20:52.514Z,958.79
2018-08-21T00:21:52.506Z,958.89
2018-08-21T00:22:52.503Z,958.83
2018-08-21T00:23:52.499Z,958.83
2018-08-21T00:24:52.495Z,958.87
2018-08-21T00:25:52.492Z,958.84
2018-08-21T00:26:52.490Z,958.86
2018-08-21T00:27:52.485Z,958.86
2018-08-21T00:28:52.480Z,958.81
2018-08-21T00:29:52.476Z,958.79
2018-08-21T00:30:52.475Z,958.82
2018-08-21T00:31:52.471Z,958.79
2018-08-21T00:32:52.468Z,958.82
2018-08-21T00:33:52.463Z,958.81
2018-08-21T00:34:52.460Z,958.85
2018-08-21T00:35:52.454Z,958.75
2018-08-21T00:36:52.450Z,958.77
2018-08-21T00:37:52.447Z,958.77
2018-08-21T00:38:52.446Z,958.73
2018-08-21T00:39:52.440Z,958.76
2018-08-21T00:40:52.437Z,958.72
2018-08-21T00:41:52.433Z,958.76
2018-08-21T00:42:52.429Z,958.76
2018-08-21T00:43:52.426Z,958.76
2018-08-21T00:44:52.425Z,958.8
2018-08-21T00:45:52.418Z,958.76
2018-08-21T00:46:52.418Z,958.81
2018-08-21T00:47:52.409Z,958.83
2018-08-21T00:48:52.404Z,958.77
2018-08-21T00:49:52.403Z,958.81
2018-08-21T00:50:52.401Z,958.83
2018-08-21T00:51:52.393Z,958.81
2018-08-21T00:52:52.390Z,958.85
2018-08-21T00:53:52.385Z,958.86
2018-08-21T00:54:52.384Z,958.86
2018-08-21T00:55:52.377Z,958.87
2018-08-21T00:56:52.379Z,958.87
2018-08-21T00:57:52.368Z,958.86
2018-08-21T00:58:52.366Z,958.89
2018-08-21T00:59:52.362Z,958.86
2018-08-21T01:00:52.359Z,958.89
2018-08-21T01:01:52.353Z,958.84
2018-08-21T01:02:52.350Z,958.86
2018-08-21T01:03:52.345Z,958.85
2018-08-21T01:04:52.342Z,958.87
2018-08-21T01:05:52.338Z,958.91
2018-08-21T01:06:52.335Z,958.91
2018-08-21T01:07:52.331Z,958.92
2018-08-21T01:08:52.326Z,958.94
2018-08-21T01:09:52.321Z,958.9
2018-08-21T01:10:52.318Z,958.91
2018-08-21T01:11:52.314Z,958.92
2018-08-21T01:12:52.309Z,958.91
2018-08-21T01:13:52.309Z,958.89
2018-08-21T01:14:52.302Z,958.88
2018-08-21T01:15:52.297Z,958.88
2018-08-21T01:16:52.296Z,958.87
2018-08-21T01:17:52.292Z,958.87
2018-08-21T01:18:52.287Z,958.82
2018-08-21T01:19:52.280Z,958.83
2018-08-21T01:20:52.280Z,958.85
2018-08-21T01:21:52.276Z,958.83
2018-08-21T01:22:52.270Z,958.81
2018-08-21T01:23:52.266Z,958.83
2018-08-21T01:24:52.264Z,958.83
2018-08-21T01:25:52.259Z,958.81
2018-08-21T01:26:52.257Z,958.81
2018-08-21T01:27:52.250Z,958.8
2018-08-21T01:28:52.248Z,958.8
2018-08-21T01:29:52.242Z,958.78
2018-08-21T01:30:52.238Z,958.79
2018-08-21T01:31:52.234Z,958.77
2018-08-21T01:32:52.231Z,958.74
2018-08-21T01:33:52.228Z,958.75
2018-08-21T01:34:52.224Z,958.78
2018-08-21T01:35:52.220Z,958.74
2018-08-21T01:36:52.216Z,958.73
2018-08-21T01:37:52.217Z,958.78
2018-08-21T01:38:52.206Z,958.73
2018-08-21T01:39:52.204Z,958.76
2018-08-21T01:40:52.199Z,958.79
2018-08-21T01:41:52.195Z,958.76
2018-08-21T01:42:52.193Z,958.73
2018-08-21T01:43:52.187Z,958.73
2018-08-21T01:44:52.183Z,958.75
2018-08-21T01:45:52.179Z,958.78
2018-08-21T01:46:52.183Z,958.76
2018-08-21T01:47:52.170Z,958.78
2018-08-21T01:48:52.173Z,958.81
2018-08-21T01:49:52.161Z,958.77
2018-08-21T01:50:52.157Z,958.75
2018-08-21T01:51:52.157Z,958.73
2018-08-21T01:52:52.148Z,958.78
2018-08-21T01:53:52.144Z,958.76
2018-08-21T01:54:52.140Z,958.74
2018-08-21T01:55:52.134Z,958.76
2018-08-21T01:56:52.132Z,958.76
2018-08-21T01:57:52.129Z,958.73
2018-08-21T01:58:52.124Z,958.74
2018-08-21T01:59:52.119Z,958.75
2018-08-21T02:00:52.114Z,958.77
2018-08-21T02:01:52.109Z,958.74
2018-08-21T02:02:52.105Z,958.73
2018-08-21T02:03:52.100Z,958.76
2018-08-21T02:04:52.097Z,958.74
2018-08-21T02:05:52.093Z,958.79
2018-08-21T02:06:52.086Z,958.73
2018-08-21T02:07:52.081Z,958.73
2018-08-21T02:08:52.078Z,958.75
2018-08-21T02:09:52.075Z,958.73
2018-08-21T02:10:52.069Z,958.69
2018-08-21T02:11:52.064Z,958.69
2018-08-21T02:12:52.060Z,958.65
2018-08-21T02:13:52.057Z,958.72
2018-08-21T02:14:52.050Z,958.68
2018-08-21T02:15:52.046Z,958.67
2018-08-21T02:16:52.042Z,958.7
2018-08-21T02:17:52.036Z,958.65
2018-08-21T02:18:52.031Z,958.69
2018-08-21T02:19:52.027Z,958.66
2018-08-21T02:20:52.021Z,958.69
2018-08-21T02:21:52.017Z,958.68
2018-08-21T02:22:52.013Z,958.64
2018-08-21T02:23:52.008Z,958.66
2018-08-21T02:24:52.003Z,958.64
2018-08-21T02:25:51.997Z,958.67
2018-08-21T02:26:52.006Z,958.67
2018-08-21T02:27:51.989Z,958.67
2018-08-21T02:28:51.983Z,958.63
2018-08-21T02:29:51.979Z,958.62
2018-08-21T02:30:51.975Z,958.63
2018-08-21T02:31:52.027Z,958.67
2018-08-21T02:32:51.963Z,958.63
2018-08-21T02:33:51.960Z,958.65
2018-08-21T02:34:51.954Z,958.63
2018-08-21T02:35:51.949Z,958.63
2018-08-21T02:36:51.945Z,958.61
2018-08-21T02:37:51.936Z,958.6
2018-08-21T02:38:51.938Z,958.58
2018-08-21T02:39:51.926Z,958.58
2018-08-21T02:40:51.921Z,958.62
2018-08-21T02:41:51.918Z,958.61
2018-08-21T02:42:51.911Z,958.58
2018-08-21T02:43:51.906Z,958.57
2018-08-21T02:44:51.902Z,958.56
2018-08-21T02:45:51.897Z,958.56
2018-08-21T02:46:51.890Z,958.58
2018-08-21T02:47:51.886Z,958.54
2018-08-21T02:48:51.881Z,958.52
2018-08-21T02:49:51.876Z,958.53
2018-08-21T02:50:51.869Z,958.52
2018-08-21T02:51:51.871Z,958.54
2018-08-21T02:52:51.859Z,958.56
2018-08-21T02:53:51.861Z,958.58
2018-08-21T02:54:51.848Z,958.56
2018-08-21T02:55:51.842Z,958.61
2018-08-21T02:56:51.837Z,958.57
2018-08-21T02:57:51.831Z,958.61
2018-08-21T02:58:51.826Z,958.6
2018-08-21T02:59:51.822Z,958.57
2018-08-21T03:00:51.817Z,958.58
2018-08-21T03:01:51.809Z,958.57
2018-08-21T03:02:51.804Z,958.56
2018-08-21T03:03:51.799Z,958.57
2018-08-21T03:04:51.793Z,958.62
2018-08-21T03:05:51.787Z,958.58
2018-08-21T03:06:51.780Z,958.58
2018-08-21T03:07:51.775Z,958.6
2018-08-21T03:08:51.769Z,958.61
2018-08-21T03:09:51.771Z,958.68
2018-08-21T03:10:51.759Z,958.65
2018-08-21T03:11:51.755Z,958.69
2018-08-21T03:12:51.745Z,958.67
2018-08-21T03:13:51.740Z,958.68
2018-08-21T03:14:51.733Z,958.67
2018-08-21T03:15:51.730Z,958.67
2018-08-21T03:16:51.724Z,958.63
2018-08-21T03:17:51.717Z,958.63
2018-08-21T03:18:51.713Z,958.6
2018-08-21T03:19:51.705Z,958.67
2018-08-21T03:20:51.700Z,958.65
2018-08-21T03:21:51.730Z,958.64
2018-08-21T03:22:51.689Z,958.67
2018-08-21T03:23:51.684Z,958.66
2018-08-21T03:24:51.677Z,958.65
2018-08-21T03:25:51.671Z,958.66
2018-08-21T03:26:51.666Z,958.64
2018-08-21T03:27:51.670Z,958.65
2018-08-21T03:28:51.653Z,958.66
2018-08-21T03:29:51.648Z,958.65
2018-08-21T03:30:51.644Z,958.64
2018-08-21T03:31:51.637Z,958.64
2018-08-21T03:32:51.630Z,958.63
2018-08-21T03:33:51.623Z,958.68
2018-08-21T03:34:51.620Z,958.67
2018-08-21T03:35:51.614Z,958.68
2018-08-21T03:36:51.608Z,958.66
2018-08-21T03:37:51.601Z,958.67
2018-08-21T03:38:51.595Z,958.68
2018-08-21T03:39:51.592Z,958.65
2018-08-21T03:40:51.583Z,958.68
2018-08-21T03:41:51.577Z,958.66
2018-08-21T03:42:51.572Z,958.71
2018-08-21T03:43:51.564Z,958.7
2018-08-21T03:44:51.561Z,958.7
2018-08-21T03:45:51.553Z,958.7
2018-08-21T03:46:51.547Z,958.71
2018-08-21T03:47:51.543Z,958.73
2018-08-21T03:48:51.536Z,958.7
2018-08-21T03:49:51.530Z,958.73
2018-08-21T03:50:51.525Z,958.73
2018-08-21T03:51:51.518Z,958.72
2018-08-21T03:52:51.510Z,958.74
2018-08-21T03:53:51.508Z,958.74
2018-08-21T03:54:51.499Z,958.75
2018-08-21T03:55:51.494Z,958.74
2018-08-21T03:56:51.488Z,958.75
2018-08-21T03:57:51.481Z,958.72
2018-08-21T03:58:51.476Z,958.73
2018-08-21T03:59:51.471Z,958.73
2018-08-21T04:00:51.463Z,958.76
2018-08-21T04:01:51.456Z,958.79
2018-08-21T04:02:51.452Z,958.8
2018-08-21T04:03:51.447Z,958.79
2018-08-21T04:04:51.438Z,958.78
2018-08-21T04:05:51.433Z,958.83
2018-08-21T04:06:51.427Z,958.83
2018-08-21T04:07:51.421Z,958.78
2018-08-21T04:08:51.416Z,958.78
2018-08-21T04:09:51.409Z,958.75
2018-08-21T04:10:51.403Z,958.74
2018-08-21T04:11:51.398Z,958.77
2018-08-21T04:12:51.392Z,958.78
2018-08-21T04:13:51.384Z,958.76
2018-08-21T04:14:51.379Z,958.82
2018-08-21T04:15:51.372Z,958.79
2018-08-21T04:16:51.369Z,958.78
2018-08-21T04:17:51.363Z,958.78
2018-08-21T04:18:51.358Z,958.79
2018-08-21T04:19:51.349Z,958.79
2018-08-21T04:20:51.345Z,958.77
2018-08-21T04:21:51.339Z,958.78
2018-08-21T04:22:51.330Z,958.78
2018-08-21T04:23:51.327Z,958.76
2018-08-21T04:24:51.320Z,958.77
2018-08-21T04:25:51.316Z,958.81
2018-08-21T04:26:51.309Z,958.8
2018-08-21T04:27:51.304Z,958.8
2018-08-21T04:28:51.298Z,958.84
2018-08-21T04:29:51.290Z,958.8
2018-08-21T04:30:51.292Z,958.8
2018-08-21T04:31:51.279Z,958.82
2018-08-21T04:32:51.276Z,958.82
2018-08-21T04:33:51.269Z,958.86
2018-08-21T04:34:51.263Z,958.85
2018-08-21T04:35:51.259Z,958.88
2018-08-21T04:36:51.251Z,958.89
2018-08-21T04:37:51.260Z,958.89
2018-08-21T04:38:51.241Z,958.83
2018-08-21T04:39:51.235Z,958.92
2018-08-21T04:40:51.229Z,958.89
2018-08-21T04:41:51.223Z,958.92
2018-08-21T04:42:51.217Z,958.92
2018-08-21T04:43:51.217Z,958.88
2018-08-21T04:44:51.208Z,958.9
2018-08-21T04:45:51.200Z,958.94
2018-08-21T04:46:51.198Z,958.97
2018-08-21T04:47:51.192Z,958.99
2018-08-21T04:48:51.204Z,958.97
2018-08-21T04:49:51.180Z,959.01
2018-08-21T04:50:51.174Z,959
2018-08-21T04:51:51.167Z,958.96
2018-08-21T04:52:51.163Z,958.99
2018-08-21T04:53:51.167Z,959.02
2018-08-21T04:54:51.152Z,959.04
2018-08-21T04:55:51.147Z,959.04
2018-08-21T04:56:51.144Z,959.03
2018-08-21T04:57:51.137Z,959.04
2018-08-21T04:58:51.238Z,959.07
2018-08-21T04:59:51.127Z,959.07
2018-08-21T05:00:51.121Z,959.05
2018-08-21T05:01:51.116Z,959.04
2018-08-21T05:02:51.110Z,959.09
2018-08-21T05:03:51.104Z,959.12
2018-08-21T05:04:51.099Z,959.1
2018-08-21T05:05:51.182Z,959.08
2018-08-21T05:06:51.089Z,959.12
2018-08-21T05:07:51.083Z,959.08
2018-08-21T05:08:51.079Z,959.15
2018-08-21T05:09:51.073Z,959.14
2018-08-21T05:10:51.069Z,959.12
2018-08-21T05:11:51.065Z,959.14
2018-08-21T05:12:51.060Z,959.11
2018-08-21T05:13:51.057Z,959.08
2018-08-21T05:14:51.050Z,959.09
2018-08-21T05:15:51.045Z,959.14
2018-08-21T05:16:51.041Z,959.13
2018-08-21T05:17:51.036Z,959.16
2018-08-21T05:18:51.033Z,959.13
2018-08-21T05:19:51.027Z,959.17
2018-08-21T05:20:51.022Z,959.16
2018-08-21T05:21:51.019Z,959.14
2018-08-21T05:22:51.010Z,959.15
2018-08-21T05:23:51.009Z,959.19
2018-08-21T05:24:51.004Z,959.18
2018-08-21T05:25:50.998Z,959.19
2018-08-21T05:26:50.994Z,959.24
2018-08-21T05:27:50.988Z,959.23
2018-08-21T05:28:50.984Z,959.2
2018-08-21T05:29:50.979Z,959.27
2018-08-21T05:30:50.976Z,959.26
2018-08-21T05:31:50.969Z,959.24
2018-08-21T05:32:50.968Z,959.25
2018-08-21T05:33:50.962Z,959.29
2018-08-21T05:34:50.958Z,959.31
2018-08-21T05:35:50.956Z,959.29
2018-08-21T05:36:50.949Z,959.33
2018-08-21T05:37:50.945Z,959.32
2018-08-21T05:38:50.940Z,959.32
2018-08-21T05:39:50.937Z,959.36
2018-08-21T05:40:50.933Z,959.36
2018-08-21T05:41:50.930Z,959.36
2018-08-21T05:42:50.922Z,959.38
2018-08-21T05:43:50.933Z,959.41
2018-08-21T05:44:50.916Z,959.41
2018-08-21T05:45:50.911Z,959.45
2018-08-21T05:46:50.906Z,959.42
2018-08-21T05:47:50.902Z,959.47
2018-08-21T05:48:50.900Z,959.46
2018-08-21T05:49:50.895Z,959.48
2018-08-21T05:50:50.891Z,959.48
2018-08-21T05:51:50.888Z,959.49
2018-08-21T05:52:50.883Z,959.51
2018-08-21T05:53:50.880Z,959.52
2018-08-21T05:54:50.877Z,959.52
2018-08-21T05:55:51.045Z,959.49
2018-08-21T05:56:50.869Z,959.57
2018-08-21T05:57:50.865Z,959.51
2018-08-21T05:58:50.864Z,959.5
2018-08-21T05:59:50.858Z,959.49
2018-08-21T06:00:50.859Z,959.53
2018-08-21T06:01:50.850Z,959.53
2018-08-21T06:02:50.848Z,959.56
2018-08-21T06:03:50.845Z,959.57
2018-08-21T06:04:50.840Z,959.58
2018-08-21T06:05:50.837Z,959.59
2018-08-21T06:06:50.834Z,959.62
2018-08-21T06:07:50.883Z,959.59
2018-08-21T06:08:50.828Z,959.57
2018-08-21T06:09:50.829Z,959.61
2018-08-21T06:10:50.825Z,959.63
2018-08-21T06:11:50.819Z,959.62
2018-08-21T06:12:50.815Z,959.57
2018-08-21T06:13:50.812Z,959.6
2018-08-21T06:14:50.811Z,959.58
2018-08-21T06:15:50.806Z,959.61
2018-08-21T06:16:50.804Z,959.6
2018-08-21T06:17:50.803Z,959.6
2018-08-21T06:18:50.806Z,959.6
2018-08-21T06:19:50.799Z,959.58
2018-08-21T06:20:50.793Z,959.58
2018-08-21T06:21:50.792Z,959.62
2018-08-21T06:22:50.788Z,959.63
2018-08-21T06:23:50.787Z,959.61
2018-08-21T06:24:50.848Z,959.58
2018-08-21T06:25:50.782Z,959.66
2018-08-21T06:26:50.780Z,959.65
2018-08-21T06:27:50.775Z,959.63
2018-08-21T06:28:50.774Z,959.68
2018-08-21T06:29:50.771Z,959.68
2018-08-21T06:30:50.770Z,959.7
2018-08-21T06:31:50.804Z,959.69
2018-08-21T06:32:50.764Z,959.69
2018-08-21T06:33:50.763Z,959.69
2018-08-21T06:34:50.759Z,959.76
2018-08-21T06:35:50.756Z,959.73
2018-08-21T06:36:50.756Z,959.7
2018-08-21T06:37:50.751Z,959.77
2018-08-21T06:38:50.750Z,959.75
2018-08-21T06:39:50.812Z,959.77
2018-08-21T06:40:50.749Z,959.81
2018-08-21T06:41:50.744Z,959.81
2018-08-21T06:42:50.741Z,959.81
2018-08-21T06:43:50.741Z,959.81
2018-08-21T06:44:50.740Z,959.8
2018-08-21T06:45:50.735Z,959.83
2018-08-21T06:46:50.734Z,959.81
2018-08-21T06:47:50.733Z,959.83
2018-08-21T06:48:50.730Z,959.85
2018-08-21T06:49:50.727Z,959.87
2018-08-21T06:50:50.727Z,959.85
2018-08-21T06:51:50.726Z,959.88
2018-08-21T06:52:50.733Z,959.86
2018-08-21T06:53:50.723Z,959.85
2018-08-21T06:54:50.720Z,959.84
2018-08-21T06:55:50.718Z,959.81
2018-08-21T06:56:50.717Z,959.79
2018-08-21T06:57:50.716Z,959.82
2018-08-21T06:58:50.719Z,959.82
2018-08-21T06:59:50.713Z,959.84
2018-08-21T07:00:50.711Z,959.84
2018-08-21T07:01:50.710Z,959.83
2018-08-21T07:02:50.707Z,959.84
2018-08-21T07:03:50.707Z,959.84
2018-08-21T07:04:50.707Z,959.84
2018-08-21T07:05:50.703Z,959.85
2018-08-21T07:06:50.706Z,959.82
2018-08-21T07:07:50.701Z,959.8
2018-08-21T07:08:50.700Z,959.82
2018-08-21T07:09:50.699Z,959.83
2018-08-21T07:10:50.698Z,959.89
2018-08-21T07:11:50.700Z,959.89
2018-08-21T07:12:50.697Z,959.88
2018-08-21T07:13:50.696Z,959.87
2018-08-21T07:14:50.694Z,959.92
2018-08-21T07:15:50.694Z,959.97
2018-08-21T07:16:50.695Z,959.93
2018-08-21T07:17:50.693Z,959.91
2018-08-21T07:18:50.690Z,959.84
2018-08-21T07:19:50.694Z,959.84
2018-08-21T07:20:50.692Z,959.86
2018-08-21T07:21:50.691Z,959.82
2018-08-21T07:22:50.690Z,959.82
2018-08-21T07:23:50.692Z,959.84
2018-08-21T07:24:50.691Z,960
2018-08-21T07:25:50.690Z,960
2018-08-21T07:26:50.690Z,960.35
2018-08-21T07:27:50.691Z,960.13
2018-08-21T07:28:50.692Z,959.85
2018-08-21T07:29:50.690Z,959.88
2018-08-21T07:30:50.692Z,959.88
2018-08-21T07:31:50.692Z,959.82
2018-08-21T07:32:50.700Z,959.82
2018-08-21T07:33:50.702Z,959.85
2018-08-21T07:34:50.694Z,959.81
2018-08-21T07:35:50.781Z,959.82
2018-08-21T07:36:50.696Z,959.85
2018-08-21T07:37:50.697Z,959.88
2018-08-21T07:38:50.697Z,959.9
2018-08-21T07:39:50.697Z,959.89
2018-08-21T07:40:50.697Z,959.9
2018-08-21T07:41:50.705Z,959.93
2018-08-21T07:42:50.700Z,959.87
2018-08-21T07:43:50.699Z,959.88
2018-08-21T07:44:50.708Z,959.9
2018-08-21T07:45:50.702Z,959.9
2018-08-21T07:46:50.705Z,959.92
2018-08-21T07:47:50.703Z,959.92
2018-08-21T07:48:50.705Z,959.92
2018-08-21T07:49:50.708Z,959.93
2018-08-21T07:50:50.704Z,959.94
2018-08-21T07:51:50.710Z,959.94
2018-08-21T07:52:50.709Z,959.92
2018-08-21T07:53:50.709Z,959.97
2018-08-21T07:54:50.715Z,959.96
2018-08-21T07:55:50.710Z,960
2018-08-21T07:56:50.711Z,960
2018-08-21T07:57:50.711Z,960
2018-08-21T07:58:50.715Z,960.04
2018-08-21T07:59:50.712Z,960.01
2018-08-21T08:00:50.713Z,960.03
2018-08-21T08:01:50.713Z,960.01
2018-08-21T08:02:50.713Z,960.01
2018-08-21T08:03:50.725Z,960.02
2018-08-21T08:04:50.717Z,960.03
2018-08-21T08:05:50.720Z,960.02
2018-08-21T08:06:50.723Z,960.02
2018-08-21T08:07:50.717Z,960.01
2018-08-21T08:08:50.718Z,960.05
2018-08-21T08:09:50.743Z,960.08
2018-08-21T08:10:50.719Z,960.04
2018-08-21T08:11:50.720Z,960.1
2018-08-21T08:12:50.721Z,960.06
2018-08-21T08:13:50.820Z,960.05
2018-08-21T08:14:50.726Z,960.06
2018-08-21T08:15:50.723Z,960.06
2018-08-21T08:16:50.724Z,960.07
2018-08-21T08:17:50.725Z,960.07
2018-08-21T08:18:50.727Z,960.02
2018-08-21T08:19:50.728Z,960.07
2018-08-21T08:20:50.729Z,960.01
2018-08-21T08:21:50.728Z,960
2018-08-21T08:22:50.754Z,960.04
2018-08-21T08:23:50.729Z,960
2018-08-21T08:24:50.732Z,960.03
2018-08-21T08:25:50.732Z,960.02
2018-08-21T08:26:50.733Z,960.02
2018-08-21T08:27:50.735Z,960.03
2018-08-21T08:28:50.784Z,960.01
2018-08-21T08:29:50.738Z,960
2018-08-21T08:30:50.737Z,960.02
2018-08-21T08:31:50.740Z,959.98
2018-08-21T08:32:50.739Z,959.97
2018-08-21T08:33:50.776Z,959.93
2018-08-21T08:34:50.744Z,959.97
2018-08-21T08:35:50.750Z,959.94
2018-08-21T08:36:50.744Z,959.96
2018-08-21T08:37:50.749Z,959.94
2018-08-21T08:38:50.745Z,959.93
2018-08-21T08:39:50.746Z,959.94
2018-08-21T08:40:50.745Z,959.91
2018-08-21T08:41:50.750Z,959.89
2018-08-21T08:42:50.747Z,959.88
2018-08-21T08:43:50.749Z,959.87
2018-08-21T08:44:50.751Z,959.84
2018-08-21T08:45:50.750Z,959.85
2018-08-21T08:46:50.754Z,959.82
2018-08-21T08:47:50.757Z,959.81
2018-08-21T08:48:50.751Z,959.82
2018-08-21T08:49:50.753Z,959.87
2018-08-21T08:50:50.757Z,959.83
2018-08-21T08:51:50.763Z,959.87
2018-08-21T08:52:50.756Z,959.86
2018-08-21T08:53:50.756Z,959.93
2018-08-21T08:54:50.759Z,959.91
2018-08-21T08:55:50.762Z,959.93
2018-08-21T08:56:50.758Z,959.91
2018-08-21T08:57:50.758Z,959.91
2018-08-21T08:58:50.760Z,959.92
2018-08-21T08:59:50.758Z,959.89
2018-08-21T09:00:50.760Z,959.89
2018-08-21T09:01:50.763Z,959.88
2018-08-21T09:02:50.761Z,959.88
2018-08-21T09:03:50.760Z,959.88
2018-08-21T09:04:50.776Z,959.89
2018-08-21T09:05:50.763Z,959.89
2018-08-21T09:06:50.761Z,959.93
2018-08-21T09:07:50.769Z,959.92
2018-08-21T09:08:50.763Z,959.87
2018-08-21T09:09:50.764Z,959.9
2018-08-21T09:10:50.764Z,959.9
2018-08-21T09:11:50.765Z,959.9
2018-08-21T09:12:50.766Z,959.89
2018-08-21T09:13:50.766Z,959.93
2018-08-21T09:14:50.766Z,959.94
2018-08-21T09:15:50.767Z,959.94
2018-08-21T09:16:50.768Z,959.91
2018-08-21T09:17:50.769Z,959.94
2018-08-21T09:18:50.768Z,959.94
2018-08-21T09:19:50.770Z,959.96
2018-08-21T09:20:50.771Z,959.95
2018-08-21T09:21:50.770Z,959.96
2018-08-21T09:22:50.778Z,959.96
2018-08-21T09:23:50.773Z,959.97
2018-08-21T09:24:50.774Z,959.9
2018-08-21T09:25:50.773Z,959.93
2018-08-21T09:26:50.776Z,959.87
2018-08-21T09:27:50.779Z,959.88
2018-08-21T09:28:50.776Z,959.89
2018-08-21T09:29:50.779Z,959.91
2018-08-21T09:30:50.780Z,959.88
2018-08-21T09:31:50.782Z,959.84
2018-08-21T09:32:50.782Z,959.87
2018-08-21T09:33:50.787Z,959.86
2018-08-21T09:34:50.785Z,959.84
2018-08-21T09:35:50.788Z,959.82
2018-08-21T09:36:50.787Z,959.88
2018-08-21T09:37:50.799Z,959.86
2018-08-21T09:38:50.791Z,959.83
2018-08-21T09:39:50.791Z,959.85
2018-08-21T09:40:50.798Z,959.82
2018-08-21T09:41:50.795Z,959.84
2018-08-21T09:42:50.805Z,959.86
2018-08-21T09:43:50.799Z,959.86
2018-08-21T09:44:50.801Z,959.85
2018-08-21T09:45:50.836Z,959.86
2018-08-21T09:46:50.803Z,959.84
2018-08-21T09:47:50.800Z,959.81
2018-08-21T09:48:50.803Z,959.8
2018-08-21T09:49:50.804Z,959.86
2018-08-21T09:50:50.810Z,959.89
2018-08-21T09:51:50.894Z,959.9
2018-08-21T09:52:50.808Z,959.87
2018-08-21T09:53:50.811Z,959.87
2018-08-21T09:54:50.811Z,959.86
2018-08-21T09:55:50.814Z,959.84
2018-08-21T09:56:50.815Z,959.84
2018-08-21T09:57:50.817Z,959.83
2018-08-21T09:58:50.816Z,959.82
2018-08-21T09:59:50.817Z,959.88
2018-08-21T10:00:50.822Z,959.87
2018-08-21T10:01:50.822Z,959.8
2018-08-21T10:02:50.825Z,959.85
2018-08-21T10:03:50.825Z,959.87
2018-08-21T10:04:50.827Z,959.81
2018-08-21T10:05:50.832Z,959.84
2018-08-21T10:06:50.964Z,959.82
2018-08-21T10:07:50.833Z,959.84
2018-08-21T10:08:50.835Z,959.85
2018-08-21T10:09:50.835Z,959.83
2018-08-21T10:10:50.838Z,959.87
2018-08-21T10:11:50.840Z,959.88
2018-08-21T10:12:50.838Z,959.91
2018-08-21T10:13:50.840Z,959.83
2018-08-21T10:14:50.848Z,959.87
2018-08-21T10:15:50.850Z,959.87
2018-08-21T10:16:50.847Z,959.83
2018-08-21T10:17:50.848Z,959.85
2018-08-21T10:18:50.851Z,959.84
2018-08-21T10:19:50.855Z,959.82
2018-08-21T10:20:50.853Z,959.8
2018-08-21T10:21:50.855Z,959.79
2018-08-21T10:22:50.856Z,959.78
2018-08-21T10:23:50.856Z,959.8
2018-08-21T10:24:50.865Z,959.75
2018-08-21T10:25:50.860Z,959.81
2018-08-21T10:26:50.862Z,959.75
2018-08-21T10:27:50.864Z,959.77
2018-08-21T10:28:50.865Z,959.74
2018-08-21T10:29:50.877Z,959.78
2018-08-21T10:30:50.873Z,959.76
2018-08-21T10:31:50.870Z,959.77
2018-08-21T10:32:50.873Z,959.72
2018-08-21T10:33:50.875Z,959.77
2018-08-21T10:34:50.919Z,959.76
2018-08-21T10:35:50.879Z,959.78
2018-08-21T10:36:50.880Z,959.75
2018-08-21T10:37:50.886Z,959.75
2018-08-21T10:38:50.885Z,959.71
2018-08-21T10:39:50.886Z,959.7
2018-08-21T10:40:50.889Z,959.75
2018-08-21T10:41:50.893Z,959.76
2018-08-21T10:42:50.892Z,959.68
2018-08-21T10:43:50.892Z,959.65
2018-08-21T10:44:50.895Z,959.68
2018-08-21T10:45:50.896Z,959.65
2018-08-21T10:46:50.899Z,959.66
2018-08-21T10:47:50.900Z,959.68
2018-08-21T10:48:50.902Z,959.69
2018-08-21T10:49:50.904Z,959.67
2018-08-21T10:50:50.906Z,959.68
2018-08-21T10:51:50.949Z,959.66
2018-08-21T10:52:50.912Z,959.62
2018-08-21T10:53:50.913Z,959.65
2018-08-21T10:54:50.915Z,959.66
2018-08-21T10:55:50.916Z,959.62
2018-08-21T10:56:50.917Z,959.64
2018-08-21T10:57:50.919Z,959.62
2018-08-21T10:58:50.921Z,959.62
2018-08-21T10:59:50.923Z,959.63
2018-08-21T11:00:50.924Z,959.65
2018-08-21T11:01:50.927Z,959.61
2018-08-21T11:02:50.929Z,959.57
2018-08-21T11:03:50.930Z,959.57
2018-08-21T11:04:50.932Z,959.57
2018-08-21T11:05:50.934Z,959.58
2018-08-21T11:06:50.937Z,959.6
2018-08-21T11:07:50.941Z,959.63
2018-08-21T11:08:50.939Z,959.63
2018-08-21T11:09:50.942Z,959.66
2018-08-21T11:10:50.943Z,959.69
2018-08-21T11:11:50.946Z,959.69
2018-08-21T11:12:50.949Z,959.69
2018-08-21T11:13:50.949Z,959.65
2018-08-21T11:14:50.953Z,959.61
2018-08-21T11:15:50.953Z,959.56
2018-08-21T11:16:50.960Z,959.54
2018-08-21T11:17:50.961Z,959.54
2018-08-21T11:18:50.961Z,959.5
2018-08-21T11:19:50.962Z,959.52
2018-08-21T11:20:50.966Z,959.49
2018-08-21T11:21:50.969Z,959.48
2018-08-21T11:22:50.969Z,959.41
2018-08-21T11:23:50.971Z,959.45
2018-08-21T11:24:50.977Z,959.47
2018-08-21T11:25:50.979Z,959.42
2018-08-21T11:26:50.979Z,959.43
2018-08-21T11:27:50.987Z,959.39
2018-08-21T11:28:50.984Z,959.39
2018-08-21T11:29:51.014Z,959.37
2018-08-21T11:30:50.990Z,959.33
2018-08-21T11:31:50.995Z,959.35
2018-08-21T11:32:50.993Z,959.32
2018-08-21T11:33:50.995Z,959.32
2018-08-21T11:34:50.998Z,959.33
2018-08-21T11:35:51.000Z,959.32
2018-08-21T11:36:51.004Z,959.31
2018-08-21T11:37:51.079Z,959.28
2018-08-21T11:38:51.011Z,959.28
2018-08-21T11:39:51.012Z,959.32
2018-08-21T11:40:51.016Z,959.33
2018-08-21T11:41:51.018Z,959.35
2018-08-21T11:42:51.022Z,959.35
2018-08-21T11:43:51.025Z,959.34
2018-08-21T11:44:51.028Z,959.34
2018-08-21T11:45:51.033Z,959.36
2018-08-21T11:46:51.033Z,959.35
2018-08-21T11:47:51.036Z,959.39
2018-08-21T11:48:51.041Z,959.35
2018-08-21T11:49:51.040Z,959.35
2018-08-21T11:50:51.046Z,959.32
2018-08-21T11:51:51.046Z,959.29
2018-08-21T11:52:51.051Z,959.31
2018-08-21T11:53:51.059Z,959.34
2018-08-21T11:54:51.058Z,959.34
2018-08-21T11:55:51.059Z,959.36
2018-08-21T11:56:51.067Z,959.39
2018-08-21T11:57:51.065Z,959.37
2018-08-21T11:58:51.069Z,959.36
2018-08-21T11:59:51.073Z,959.36
2018-08-21T12:00:51.074Z,959.37
2018-08-21T12:01:51.129Z,959.29
2018-08-21T12:02:51.079Z,959.27
2018-08-21T12:03:51.084Z,959.27
2018-08-21T12:04:51.088Z,959.26
2018-08-21T12:05:51.095Z,959.34
2018-08-21T12:06:51.094Z,959.29
2018-08-21T12:07:51.101Z,959.25
2018-08-21T12:08:51.133Z,959.27
2018-08-21T12:09:51.105Z,959.26
2018-08-21T12:10:51.107Z,959.26
2018-08-21T12:11:51.111Z,959.25
2018-08-21T12:12:51.115Z,959.26
2018-08-21T12:13:51.120Z,959.26
2018-08-21T12:14:51.228Z,959.26
2018-08-21T12:15:51.126Z,959.27
2018-08-21T12:16:51.129Z,959.29
2018-08-21T12:17:51.130Z,959.3
2018-08-21T12:18:51.138Z,959.28
2018-08-21T12:19:51.138Z,959.28
2018-08-21T12:20:51.142Z,959.3
2018-08-21T12:21:51.146Z,959.29
2018-08-21T12:22:51.149Z,959.29
2018-08-21T12:23:51.190Z,959.28
2018-08-21T12:24:51.156Z,959.31
2018-08-21T12:25:51.165Z,959.3
2018-08-21T12:26:51.161Z,959.33
2018-08-21T12:27:51.165Z,959.29
2018-08-21T12:28:51.175Z,959.25
2018-08-21T12:29:51.191Z,959.28
2018-08-21T12:30:51.174Z,959.28
2018-08-21T12:31:51.177Z,959.25